sensor_id;sensor_type;location;lat;lon;timestamp;pressure;altitude;pressure_sealevel;temperature;humidity
68889;BME280;55930;47.412;8.790;2023-03-23T00:02:01;94181.06;;;9.44;84.08
68889;BME280;55930;47.412;8.790;2023-03-23T00:05:22;94170.41;;;9.39;84.21
68889;BME280;55930;47.412;8.790;2023-03-23T00:08:45;94173.72;;;9.34;86.11
68889;BME280;55930;47.412;8.790;2023-03-23T00:12:08;94178.53;;;9.35;85.51
68889;BME280;55930;47.412;8.790;2023-03-23T00:15:29;94163.38;;;9.36;85.88
68889;BME280;55930;47.412;8.790;2023-03-23T00:18:58;94158.75;;;9.31;85.82
68889;BME280;55930;47.412;8.790;2023-03-23T00:22:18;94164.13;;;9.21;88.42
68889;BME280;55930;47.412;8.790;2023-03-23T00:25:41;94165.78;;;9.19;90.19
68889;BME280;55930;47.412;8.790;2023-03-23T00:29:03;94167.22;;;9.20;88.63
68889;BME280;55930;47.412;8.790;2023-03-23T00:32:24;94169.88;;;9.20;89.69
68889;BME280;55930;47.412;8.790;2023-03-23T00:35:48;94163.97;;;9.25;88.30
68889;BME280;55930;47.412;8.790;2023-03-23T00:39:09;94163.69;;;9.23;88.65
68889;BME280;55930;47.412;8.790;2023-03-23T00:42:29;94166.31;;;9.23;89.07
68889;BME280;55930;47.412;8.790;2023-03-23T00:45:50;94166.41;;;9.29;88.61
68889;BME280;55930;47.412;8.790;2023-03-23T00:49:16;94159.84;;;9.24;87.41
68889;BME280;55930;47.412;8.790;2023-03-23T00:52:37;94156.25;;;9.27;87.61
68889;BME280;55930;47.412;8.790;2023-03-23T00:55:58;94162.66;;;9.20;88.07
68889;BME280;55930;47.412;8.790;2023-03-23T00:59:19;94167.34;;;9.26;90.25
68889;BME280;55930;47.412;8.790;2023-03-23T01:02:40;94160.31;;;9.23;90.07
68889;BME280;55930;47.412;8.790;2023-03-23T01:06:05;94149.63;;;9.17;91.10
68889;BME280;55930;47.412;8.790;2023-03-23T01:09:28;94156.75;;;9.26;89.69
68889;BME280;55930;47.412;8.790;2023-03-23T01:12:48;94147.41;;;9.30;88.51
68889;BME280;55930;47.412;8.790;2023-03-23T01:16:10;94143.31;;;9.29;89.57
68889;BME280;55930;47.412;8.790;2023-03-23T01:19:30;94143.88;;;9.18;91.17
68889;BME280;55930;47.412;8.790;2023-03-23T01:22:51;94141.69;;;9.17;89.47
68889;BME280;55930;47.412;8.790;2023-03-23T01:26:17;94130.03;;;9.09;90.41
68889;BME280;55930;47.412;8.790;2023-03-23T01:29:38;94133.94;;;9.13;89.55
68889;BME280;55930;47.412;8.790;2023-03-23T01:32:58;94128.56;;;9.08;92.17
68889;BME280;55930;47.412;8.790;2023-03-23T01:36:24;94122.81;;;9.09;91.46
68889;BME280;55930;47.412;8.790;2023-03-23T01:39:46;94131.94;;;9.08;90.77
68889;BME280;55930;47.412;8.790;2023-03-23T01:43:13;94125.13;;;9.02;90.99
68889;BME280;55930;47.412;8.790;2023-03-23T01:46:35;94132.41;;;9.07;89.85
68889;BME280;55930;47.412;8.790;2023-03-23T01:49:56;94125.28;;;9.13;88.00
68889;BME280;55930;47.412;8.790;2023-03-23T01:53:17;94127.75;;;9.16;86.76
68889;BME280;55930;47.412;8.790;2023-03-23T01:56:39;94127.25;;;9.33;82.83
68889;BME280;55930;47.412;8.790;2023-03-23T02:00:04;94127.31;;;9.38;83.38
68889;BME280;55930;47.412;8.790;2023-03-23T02:03:37;94130.41;;;9.37;82.67
68889;BME280;55930;47.412;8.790;2023-03-23T02:06:58;94135.28;;;9.58;79.33
68889;BME280;55930;47.412;8.790;2023-03-23T02:10:19;94137.91;;;9.73;78.77
68889;BME280;55930;47.412;8.790;2023-03-23T02:13:39;94136.56;;;9.83;78.11
68889;BME280;55930;47.412;8.790;2023-03-23T02:17:10;94142.00;;;9.94;77.41
68889;BME280;55930;47.412;8.790;2023-03-23T02:24:47;94150.63;;;10.10;75.68
68889;BME280;55930;47.412;8.790;2023-03-23T02:28:34;94157.72;;;10.18;76.00
68889;BME280;55930;47.412;8.790;2023-03-23T02:35:43;94164.41;;;10.34;73.36
68889;BME280;55930;47.412;8.790;2023-03-23T02:39:23;94162.03;;;10.36;73.09
68889;BME280;55930;47.412;8.790;2023-03-23T02:42:48;94169.44;;;10.32;74.04
68889;BME280;55930;47.412;8.790;2023-03-23T02:46:10;94161.22;;;10.30;72.43
68889;BME280;55930;47.412;8.790;2023-03-23T02:49:32;94161.75;;;10.34;72.14
68889;BME280;55930;47.412;8.790;2023-03-23T02:52:56;94160.34;;;10.39;72.24
68889;BME280;55930;47.412;8.790;2023-03-23T02:56:23;94148.41;;;10.08;78.87
68889;BME280;55930;47.412;8.790;2023-03-23T02:59:46;94146.19;;;10.01;81.28
68889;BME280;55930;47.412;8.790;2023-03-23T03:03:14;94143.78;;;10.03;81.26
68889;BME280;55930;47.412;8.790;2023-03-23T03:14:26;94136.91;;;9.91;83.23
68889;BME280;55930;47.412;8.790;2023-03-23T03:18:24;94132.19;;;10.01;81.17
68889;BME280;55930;47.412;8.790;2023-03-23T03:21:49;94124.06;;;10.04;80.24
68889;BME280;55930;47.412;8.790;2023-03-23T03:25:12;94114.78;;;9.94;81.09
68889;BME280;55930;47.412;8.790;2023-03-23T03:28:33;94103.72;;;9.95;81.44
68889;BME280;55930;47.412;8.790;2023-03-23T03:31:55;94098.94;;;9.99;77.71
68889;BME280;55930;47.412;8.790;2023-03-23T03:35:17;94116.88;;;10.10;77.20
68889;BME280;55930;47.412;8.790;2023-03-23T03:38:42;94111.84;;;10.12;75.43
68889;BME280;55930;47.412;8.790;2023-03-23T03:42:04;94104.50;;;10.22;74.21
68889;BME280;55930;47.412;8.790;2023-03-23T03:45:25;94093.50;;;10.29;73.91
68889;BME280;55930;47.412;8.790;2023-03-23T03:48:45;94094.16;;;10.24;75.22
68889;BME280;55930;47.412;8.790;2023-03-23T03:52:08;94087.47;;;10.28;72.53
68889;BME280;55930;47.412;8.790;2023-03-23T03:55:30;94086.03;;;10.53;69.43
68889;BME280;55930;47.412;8.790;2023-03-23T03:58:55;94090.63;;;10.58;70.81
68889;BME280;55930;47.412;8.790;2023-03-23T04:02:16;94083.72;;;10.66;69.13
68889;BME280;55930;47.412;8.790;2023-03-23T04:05:40;94087.00;;;10.56;71.70
68889;BME280;55930;47.412;8.790;2023-03-23T04:09:04;94079.81;;;10.62;69.12
68889;BME280;55930;47.412;8.790;2023-03-23T04:12:26;94076.25;;;10.70;69.05
68889;BME280;55930;47.412;8.790;2023-03-23T04:15:47;94075.31;;;10.73;69.26
68889;BME280;55930;47.412;8.790;2023-03-23T04:19:07;94087.59;;;10.71;69.67
68889;BME280;55930;47.412;8.790;2023-03-23T04:22:28;94079.09;;;10.61;69.98
68889;BME280;55930;47.412;8.790;2023-03-23T04:25:53;94075.28;;;10.68;70.23
68889;BME280;55930;47.412;8.790;2023-03-23T04:29:16;94073.97;;;10.84;68.23
68889;BME280;55930;47.412;8.790;2023-03-23T04:32:37;94075.53;;;10.70;70.09
68889;BME280;55930;47.412;8.790;2023-03-23T04:36:02;94075.59;;;10.76;69.14
68889;BME280;55930;47.412;8.790;2023-03-23T04:39:25;94075.94;;;10.94;68.34
68889;BME280;55930;47.412;8.790;2023-03-23T04:42:49;94072.50;;;10.83;67.54
68889;BME280;55930;47.412;8.790;2023-03-23T04:46:12;94067.16;;;10.77;68.71
68889;BME280;55930;47.412;8.790;2023-03-23T04:49:35;94072.41;;;11.03;66.10
68889;BME280;55930;47.412;8.790;2023-03-23T04:52:57;94063.38;;;10.89;66.74
68889;BME280;55930;47.412;8.790;2023-03-23T04:56:24;94062.06;;;10.73;67.99
68889;BME280;55930;47.412;8.790;2023-03-23T04:59:44;94065.72;;;10.76;67.43
68889;BME280;55930;47.412;8.790;2023-03-23T05:03:04;94061.81;;;10.71;69.07
68889;BME280;55930;47.412;8.790;2023-03-23T05:06:27;94056.75;;;10.73;68.04
68889;BME280;55930;47.412;8.790;2023-03-23T05:09:48;94064.75;;;10.79;67.19
68889;BME280;55930;47.412;8.790;2023-03-23T05:13:08;94067.19;;;10.83;67.39
68889;BME280;55930;47.412;8.790;2023-03-23T05:16:32;94068.13;;;10.80;67.01
68889;BME280;55930;47.412;8.790;2023-03-23T05:19:53;94073.88;;;10.72;69.26
68889;BME280;55930;47.412;8.790;2023-03-23T05:23:13;94076.22;;;10.96;66.03
68889;BME280;55930;47.412;8.790;2023-03-23T05:26:34;94069.81;;;11.14;64.42
68889;BME280;55930;47.412;8.790;2023-03-23T05:29:54;94068.97;;;10.97;68.22
68889;BME280;55930;47.412;8.790;2023-03-23T05:33:15;94069.72;;;10.97;67.04
68889;BME280;55930;47.412;8.790;2023-03-23T05:36:35;94067.41;;;10.79;70.15
68889;BME280;55930;47.412;8.790;2023-03-23T05:40:06;94077.84;;;10.57;76.97
68889;BME280;55930;47.412;8.790;2023-03-23T05:43:38;94074.25;;;10.60;74.95
68889;BME280;55930;47.412;8.790;2023-03-23T05:47:00;94083.28;;;10.73;74.31
68889;BME280;55930;47.412;8.790;2023-03-23T05:50:25;94089.47;;;10.65;75.97
68889;BME280;55930;47.412;8.790;2023-03-23T05:53:46;94095.09;;;10.72;73.93
68889;BME280;55930;47.412;8.790;2023-03-23T05:57:07;94100.53;;;10.89;71.09
68889;BME280;55930;47.412;8.790;2023-03-23T06:00:28;94103.22;;;10.95;71.00
68889;BME280;55930;47.412;8.790;2023-03-23T06:03:50;94111.47;;;11.02;70.19
68889;BME280;55930;47.412;8.790;2023-03-23T06:07:14;94112.34;;;11.20;68.03
68889;BME280;55930;47.412;8.790;2023-03-23T06:10:35;94117.03;;;11.36;68.00
68889;BME280;55930;47.412;8.790;2023-03-23T06:13:57;94118.94;;;11.35;66.90
68889;BME280;55930;47.412;8.790;2023-03-23T06:17:18;94123.78;;;11.37;66.49
68889;BME280;55930;47.412;8.790;2023-03-23T06:20:38;94119.69;;;11.41;66.91
68889;BME280;55930;47.412;8.790;2023-03-23T06:23:59;94124.09;;;11.50;66.22
68889;BME280;55930;47.412;8.790;2023-03-23T06:27:20;94124.88;;;11.56;66.03
68889;BME280;55930;47.412;8.790;2023-03-23T06:30:41;94119.13;;;11.69;66.70
68889;BME280;55930;47.412;8.790;2023-03-23T06:34:07;94126.72;;;11.81;66.68
68889;BME280;55930;47.412;8.790;2023-03-23T06:37:30;94127.03;;;12.00;65.04
68889;BME280;55930;47.412;8.790;2023-03-23T06:40:54;94131.94;;;12.13;65.20
68889;BME280;55930;47.412;8.790;2023-03-23T06:44:15;94138.78;;;12.36;62.66
68889;BME280;55930;47.412;8.790;2023-03-23T06:47:36;94142.72;;;12.69;62.09
68889;BME280;55930;47.412;8.790;2023-03-23T06:51:04;94141.75;;;12.83;61.13
68889;BME280;55930;47.412;8.790;2023-03-23T06:54:25;94136.41;;;12.60;63.10
68889;BME280;55930;47.412;8.790;2023-03-23T06:57:47;94128.22;;;12.92;62.89
68889;BME280;55930;47.412;8.790;2023-03-23T07:01:08;94144.94;;;13.15;62.02
68889;BME280;55930;47.412;8.790;2023-03-23T07:04:29;94134.50;;;13.56;60.81
68889;BME280;55930;47.412;8.790;2023-03-23T07:07:53;94141.03;;;13.55;61.72
68889;BME280;55930;47.412;8.790;2023-03-23T07:11:13;94132.78;;;13.64;59.17
68889;BME280;55930;47.412;8.790;2023-03-23T07:14:33;94134.38;;;14.00;61.65
68889;BME280;55930;47.412;8.790;2023-03-23T07:17:55;94143.97;;;14.26;61.92
68889;BME280;55930;47.412;8.790;2023-03-23T07:21:15;94147.38;;;14.26;60.87
68889;BME280;55930;47.412;8.790;2023-03-23T07:24:36;94152.75;;;14.09;59.14
68889;BME280;55930;47.412;8.790;2023-03-23T07:27:57;94161.50;;;14.10;56.93
68889;BME280;55930;47.412;8.790;2023-03-23T07:31:20;94153.84;;;14.47;57.86
68889;BME280;55930;47.412;8.790;2023-03-23T07:34:40;94157.75;;;14.41;56.38
68889;BME280;55930;47.412;8.790;2023-03-23T07:38:02;94156.69;;;14.55;56.96
68889;BME280;55930;47.412;8.790;2023-03-23T07:41:22;94158.56;;;14.71;56.07
68889;BME280;55930;47.412;8.790;2023-03-23T07:44:44;94157.47;;;14.91;55.58
68889;BME280;55930;47.412;8.790;2023-03-23T07:48:07;94158.31;;;14.69;57.75
68889;BME280;55930;47.412;8.790;2023-03-23T07:51:28;94166.69;;;14.49;57.96
68889;BME280;55930;47.412;8.790;2023-03-23T07:54:49;94177.03;;;14.64;58.13
68889;BME280;55930;47.412;8.790;2023-03-23T07:58:11;94178.66;;;14.78;57.69
68889;BME280;55930;47.412;8.790;2023-03-23T08:01:37;94177.53;;;14.62;57.33
68889;BME280;55930;47.412;8.790;2023-03-23T08:04:57;94180.59;;;14.77;55.12
68889;BME280;55930;47.412;8.790;2023-03-23T08:08:20;94180.25;;;14.98;55.44
68889;BME280;55930;47.412;8.790;2023-03-23T08:11:41;94172.56;;;15.18;53.76
68889;BME280;55930;47.412;8.790;2023-03-23T08:15:06;94172.81;;;15.80;52.43
68889;BME280;55930;47.412;8.790;2023-03-23T08:18:27;94164.09;;;15.98;52.45
68889;BME280;55930;47.412;8.790;2023-03-23T08:21:49;94168.88;;;15.57;52.78
68889;BME280;55930;47.412;8.790;2023-03-23T08:25:13;94187.16;;;16.01;53.38
68889;BME280;55930;47.412;8.790;2023-03-23T08:28:37;94174.53;;;15.48;53.12
68889;BME280;55930;47.412;8.790;2023-03-23T08:31:58;94181.41;;;15.38;54.02
68889;BME280;55930;47.412;8.790;2023-03-23T08:35:19;94185.66;;;15.52;54.69
68889;BME280;55930;47.412;8.790;2023-03-23T08:38:41;94195.88;;;15.23;54.44
68889;BME280;55930;47.412;8.790;2023-03-23T08:42:03;94193.50;;;15.09;54.64
68889;BME280;55930;47.412;8.790;2023-03-23T08:45:25;94194.28;;;15.39;54.59
68889;BME280;55930;47.412;8.790;2023-03-23T08:48:46;94194.47;;;15.47;54.40
68889;BME280;55930;47.412;8.790;2023-03-23T08:52:07;94194.00;;;15.97;53.53
68889;BME280;55930;47.412;8.790;2023-03-23T08:55:28;94201.69;;;15.57;54.49
68889;BME280;55930;47.412;8.790;2023-03-23T08:58:51;94206.84;;;16.04;54.99
68889;BME280;55930;47.412;8.790;2023-03-23T09:02:12;94215.81;;;15.52;54.50
68889;BME280;55930;47.412;8.790;2023-03-23T09:05:34;94213.19;;;15.77;54.84
68889;BME280;55930;47.412;8.790;2023-03-23T09:08:57;94217.56;;;15.44;56.77
68889;BME280;55930;47.412;8.790;2023-03-23T09:12:19;94212.28;;;15.39;56.23
68889;BME280;55930;47.412;8.790;2023-03-23T09:15:42;94219.28;;;16.01;53.54
68889;BME280;55930;47.412;8.790;2023-03-23T09:19:05;94226.66;;;15.95;51.92
68889;BME280;55930;47.412;8.790;2023-03-23T09:22:33;94211.19;;;15.83;51.38
68889;BME280;55930;47.412;8.790;2023-03-23T09:25:53;94220.44;;;16.06;50.88
68889;BME280;55930;47.412;8.790;2023-03-23T09:29:14;94223.56;;;15.86;50.49
68889;BME280;55930;47.412;8.790;2023-03-23T09:32:35;94221.31;;;15.65;51.47
68889;BME280;55930;47.412;8.790;2023-03-23T09:35:55;94226.97;;;16.11;51.35
68889;BME280;55930;47.412;8.790;2023-03-23T09:39:16;94224.78;;;16.33;50.03
68889;BME280;55930;47.412;8.790;2023-03-23T09:46:45;94219.78;;;16.24;51.45
68889;BME280;55930;47.412;8.790;2023-03-23T09:50:16;94225.63;;;15.98;50.42
68889;BME280;55930;47.412;8.790;2023-03-23T09:53:40;94236.28;;;15.80;51.91
68889;BME280;55930;47.412;8.790;2023-03-23T09:57:03;94241.75;;;16.60;50.14
68889;BME280;55930;47.412;8.790;2023-03-23T10:00:31;94240.63;;;16.93;49.57
68889;BME280;55930;47.412;8.790;2023-03-23T10:04:12;94235.72;;;16.78;48.04
68889;BME280;55930;47.412;8.790;2023-03-23T10:07:34;94240.63;;;17.31;48.37
68889;BME280;55930;47.412;8.790;2023-03-23T10:11:14;94248.22;;;16.70;47.73
68889;BME280;55930;47.412;8.790;2023-03-23T10:18:17;94262.69;;;16.13;49.89
68889;BME280;55930;47.412;8.790;2023-03-23T10:21:44;94257.50;;;16.21;50.28
68889;BME280;55930;47.412;8.790;2023-03-23T10:28:42;94258.03;;;16.19;51.55
68889;BME280;55930;47.412;8.790;2023-03-23T10:35:36;94262.25;;;16.09;52.50
68889;BME280;55930;47.412;8.790;2023-03-23T10:39:27;94261.09;;;15.75;53.08
68889;BME280;55930;47.412;8.790;2023-03-23T10:42:50;94249.66;;;15.80;52.67
68889;BME280;55930;47.412;8.790;2023-03-23T10:49:54;94252.34;;;15.74;53.62
68889;BME280;55930;47.412;8.790;2023-03-23T10:56:42;94263.50;;;15.43;51.83
68889;BME280;55930;47.412;8.790;2023-03-23T11:00:23;94256.88;;;15.49;53.84
68889;BME280;55930;47.412;8.790;2023-03-23T11:08:20;94257.88;;;15.82;54.28
68889;BME280;55930;47.412;8.790;2023-03-23T11:11:48;94252.16;;;15.66;52.71
68889;BME280;55930;47.412;8.790;2023-03-23T11:19:11;94240.53;;;16.18;52.23
68889;BME280;55930;47.412;8.790;2023-03-23T11:22:32;94246.59;;;16.43;52.05
68889;BME280;55930;47.412;8.790;2023-03-23T11:25:56;94246.63;;;16.37;52.37
68889;BME280;55930;47.412;8.790;2023-03-23T11:29:20;94251.88;;;16.24;51.00
68889;BME280;55930;47.412;8.790;2023-03-23T11:32:44;94254.22;;;16.58;49.68
68889;BME280;55930;47.412;8.790;2023-03-23T11:36:06;94247.59;;;17.20;49.86
68889;BME280;55930;47.412;8.790;2023-03-23T11:46:36;94239.75;;;17.73;47.74
68889;BME280;55930;47.412;8.790;2023-03-23T11:50:16;94229.59;;;17.34;47.12
68889;BME280;55930;47.412;8.790;2023-03-23T11:53:42;94232.72;;;17.38;48.79
68889;BME280;55930;47.412;8.790;2023-03-23T11:57:10;94242.88;;;17.27;48.61
68889;BME280;55930;47.412;8.790;2023-03-23T12:00:32;94246.84;;;17.39;46.74
68889;BME280;55930;47.412;8.790;2023-03-23T12:07:39;94248.00;;;17.75;46.00
68889;BME280;55930;47.412;8.790;2023-03-23T12:14:44;94231.00;;;17.22;47.98
68889;BME280;55930;47.412;8.790;2023-03-23T12:18:36;94219.09;;;17.17;48.61
68889;BME280;55930;47.412;8.790;2023-03-23T12:29:46;94212.53;;;17.50;47.49
68889;BME280;55930;47.412;8.790;2023-03-23T12:40:28;94204.69;;;17.84;45.36
68889;BME280;55930;47.412;8.790;2023-03-23T12:44:04;94191.38;;;18.05;46.46
68889;BME280;55930;47.412;8.790;2023-03-23T12:51:07;94195.59;;;18.14;45.68
68889;BME280;55930;47.412;8.790;2023-03-23T12:58:07;94198.28;;;17.87;47.10
68889;BME280;55930;47.412;8.790;2023-03-23T13:01:35;94181.25;;;18.38;44.56
68889;BME280;55930;47.412;8.790;2023-03-23T13:05:11;94180.03;;;17.86;44.99
68889;BME280;55930;47.412;8.790;2023-03-23T13:12:10;94183.81;;;17.77;45.44
68889;BME280;55930;47.412;8.790;2023-03-23T13:15:48;94171.53;;;18.21;45.04
68889;BME280;55930;47.412;8.790;2023-03-23T13:26:23;94163.28;;;18.59;45.14
68889;BME280;55930;47.412;8.790;2023-03-23T13:29:45;94171.72;;;18.50;44.07
68889;BME280;55930;47.412;8.790;2023-03-23T13:33:12;94171.81;;;18.70;43.31
68889;BME280;55930;47.412;8.790;2023-03-23T13:36:39;94169.50;;;19.08;43.27
68889;BME280;55930;47.412;8.790;2023-03-23T13:43:37;94160.25;;;18.36;44.25
68889;BME280;55930;47.412;8.790;2023-03-23T13:47:21;94152.03;;;18.21;44.21
68889;BME280;55930;47.412;8.790;2023-03-23T13:50:58;94164.53;;;18.31;46.04
68889;BME280;55930;47.412;8.790;2023-03-23T13:54:42;94163.84;;;17.46;45.51
68889;BME280;55930;47.412;8.790;2023-03-23T14:01:33;94161.94;;;17.41;47.77
68889;BME280;55930;47.412;8.790;2023-03-23T14:04:56;94161.22;;;17.41;48.80
68889;BME280;55930;47.412;8.790;2023-03-23T14:12:22;94162.06;;;16.85;49.99
68889;BME280;55930;47.412;8.790;2023-03-23T14:16:17;94153.31;;;17.16;50.59
68889;BME280;55930;47.412;8.790;2023-03-23T14:19:40;94148.81;;;16.93;51.95
68889;BME280;55930;47.412;8.790;2023-03-23T14:23:04;94151.56;;;16.87;52.32
68889;BME280;55930;47.412;8.790;2023-03-23T14:26:25;94156.28;;;17.32;49.83
68889;BME280;55930;47.412;8.790;2023-03-23T14:29:45;94146.47;;;17.34;49.59
68889;BME280;55930;47.412;8.790;2023-03-23T14:33:12;94146.22;;;17.19;50.10
68889;BME280;55930;47.412;8.790;2023-03-23T14:36:34;94154.88;;;17.12;51.66
68889;BME280;55930;47.412;8.790;2023-03-23T14:39:56;94146.47;;;17.02;50.20
68889;BME280;55930;47.412;8.790;2023-03-23T14:43:20;94158.50;;;16.96;50.65
68889;BME280;55930;47.412;8.790;2023-03-23T14:46:44;94164.66;;;16.53;51.13
68889;BME280;55930;47.412;8.790;2023-03-23T14:50:22;94160.47;;;16.58;50.41
68889;BME280;55930;47.412;8.790;2023-03-23T14:53:43;94163.94;;;16.53;52.17
68889;BME280;55930;47.412;8.790;2023-03-23T15:04:23;94157.63;;;16.31;51.39
68889;BME280;55930;47.412;8.790;2023-03-23T15:07:49;94165.44;;;16.11;52.23
68889;BME280;55930;47.412;8.790;2023-03-23T15:14:47;94160.25;;;15.94;52.54
68889;BME280;55930;47.412;8.790;2023-03-23T15:18:30;94158.75;;;15.74;51.78
68889;BME280;55930;47.412;8.790;2023-03-23T15:22:34;94161.41;;;15.74;52.25
68889;BME280;55930;47.412;8.790;2023-03-23T15:25:36;94151.16;;;16.02;53.03
68889;BME280;55930;47.412;8.790;2023-03-23T15:29:22;94154.50;;;16.08;53.13
68889;BME280;55930;47.412;8.790;2023-03-23T15:32:45;94159.38;;;15.86;52.79
68889;BME280;55930;47.412;8.790;2023-03-23T15:36:15;94153.22;;;15.66;53.93
68889;BME280;55930;47.412;8.790;2023-03-23T15:39:40;94154.31;;;15.52;54.10
68889;BME280;55930;47.412;8.790;2023-03-23T15:43:18;94145.63;;;15.46;54.45
68889;BME280;55930;47.412;8.790;2023-03-23T15:46:49;94142.00;;;15.44;54.06
68889;BME280;55930;47.412;8.790;2023-03-23T15:53:46;94144.25;;;15.34;55.85
68889;BME280;55930;47.412;8.790;2023-03-23T15:57:12;94138.13;;;15.15;55.17
68889;BME280;55930;47.412;8.790;2023-03-23T16:00:32;94138.13;;;15.15;57.27
68889;BME280;55930;47.412;8.790;2023-03-23T16:03:56;94129.38;;;15.14;58.14
68889;BME280;55930;47.412;8.790;2023-03-23T16:07:21;94138.19;;;15.04;57.32
68889;BME280;55930;47.412;8.790;2023-03-23T16:10:42;94131.94;;;14.96;55.52
68889;BME280;55930;47.412;8.790;2023-03-23T16:14:03;94127.09;;;14.94;57.80
68889;BME280;55930;47.412;8.790;2023-03-23T16:17:23;94129.75;;;14.94;58.66
68889;BME280;55930;47.412;8.790;2023-03-23T16:20:44;94122.94;;;14.99;57.59
68889;BME280;55930;47.412;8.790;2023-03-23T16:24:05;94122.50;;;14.89;57.47
68889;BME280;55930;47.412;8.790;2023-03-23T16:27:32;94123.00;;;14.87;58.16
68889;BME280;55930;47.412;8.790;2023-03-23T16:30:53;94126.41;;;14.88;59.35
68889;BME280;55930;47.412;8.790;2023-03-23T16:34:16;94117.66;;;14.87;58.49
68889;BME280;55930;47.412;8.790;2023-03-23T16:37:36;94117.16;;;14.89;58.91
68889;BME280;55930;47.412;8.790;2023-03-23T16:40:57;94124.03;;;14.79;59.89
68889;BME280;55930;47.412;8.790;2023-03-23T16:44:18;94121.75;;;14.59;58.31
68889;BME280;55930;47.412;8.790;2023-03-23T16:47:40;94121.25;;;14.60;59.00
68889;BME280;55930;47.412;8.790;2023-03-23T16:51:00;94118.34;;;14.58;60.49
68889;BME280;55930;47.412;8.790;2023-03-23T16:54:21;94119.38;;;14.49;59.63
68889;BME280;55930;47.412;8.790;2023-03-23T16:57:42;94123.50;;;14.50;59.47
68889;BME280;55930;47.412;8.790;2023-03-23T17:01:03;94127.13;;;14.47;59.34
68889;BME280;55930;47.412;8.790;2023-03-23T17:04:31;94132.09;;;14.27;61.56
68889;BME280;55930;47.412;8.790;2023-03-23T17:07:54;94129.69;;;14.17;62.39
68889;BME280;55930;47.412;8.790;2023-03-23T17:11:15;94133.41;;;13.92;66.31
68889;BME280;55930;47.412;8.790;2023-03-23T17:14:36;94151.41;;;13.75;69.55
68889;BME280;55930;47.412;8.790;2023-03-23T17:17:57;94153.88;;;13.62;69.84
68889;BME280;55930;47.412;8.790;2023-03-23T17:21:18;94151.47;;;13.47;71.94
68889;BME280;55930;47.412;8.790;2023-03-23T17:24:39;94154.84;;;13.36;72.79
68889;BME280;55930;47.412;8.790;2023-03-23T17:28:00;94153.16;;;13.33;72.76
68889;BME280;55930;47.412;8.790;2023-03-23T17:31:20;94155.34;;;13.29;73.98
68889;BME280;55930;47.412;8.790;2023-03-23T17:34:41;94161.38;;;13.02;75.04
68889;BME280;55930;47.412;8.790;2023-03-23T17:38:01;94162.59;;;13.07;75.42
68889;BME280;55930;47.412;8.790;2023-03-23T17:41:22;94158.22;;;12.92;77.33
68889;BME280;55930;47.412;8.790;2023-03-23T17:44:43;94162.81;;;12.86;78.40
68889;BME280;55930;47.412;8.790;2023-03-23T17:48:03;94161.81;;;12.67;81.09
68889;BME280;55930;47.412;8.790;2023-03-23T17:51:26;94168.09;;;12.70;80.37
68889;BME280;55930;47.412;8.790;2023-03-23T17:54:47;94169.34;;;12.74;79.65
68889;BME280;55930;47.412;8.790;2023-03-23T17:58:08;94165.47;;;12.81;76.96
68889;BME280;55930;47.412;8.790;2023-03-23T18:01:28;94175.63;;;12.93;76.08
68889;BME280;55930;47.412;8.790;2023-03-23T18:04:49;94175.13;;;12.73;79.10
68889;BME280;55930;47.412;8.790;2023-03-23T18:08:09;94171.94;;;12.52;81.43
68889;BME280;55930;47.412;8.790;2023-03-23T18:11:30;94176.81;;;12.64;80.35
68889;BME280;55930;47.412;8.790;2023-03-23T18:14:55;94175.81;;;12.62;78.40
68889;BME280;55930;47.412;8.790;2023-03-23T18:18:16;94174.41;;;12.67;78.02
68889;BME280;55930;47.412;8.790;2023-03-23T18:21:36;94174.66;;;12.69;74.61
68889;BME280;55930;47.412;8.790;2023-03-23T18:24:57;94174.41;;;12.61;79.22
68889;BME280;55930;47.412;8.790;2023-03-23T18:28:21;94174.41;;;12.61;77.32
68889;BME280;55930;47.412;8.790;2023-03-23T18:31:42;94173.19;;;12.68;75.68
68889;BME280;55930;47.412;8.790;2023-03-23T18:35:04;94176.84;;;12.76;74.99
68889;BME280;55930;47.412;8.790;2023-03-23T18:38:26;94173.88;;;12.51;78.34
68889;BME280;55930;47.412;8.790;2023-03-23T18:41:47;94175.81;;;12.56;76.73
68889;BME280;55930;47.412;8.790;2023-03-23T18:45:08;94169.03;;;12.50;78.88
68889;BME280;55930;47.412;8.790;2023-03-23T18:48:28;94169.94;;;12.30;81.64
68889;BME280;55930;47.412;8.790;2023-03-23T18:51:49;94167.91;;;12.08;82.25
68889;BME280;55930;47.412;8.790;2023-03-23T18:55:10;94163.34;;;12.14;81.78
68889;BME280;55930;47.412;8.790;2023-03-23T18:58:30;94174.03;;;12.20;80.74
68889;BME280;55930;47.412;8.790;2023-03-23T19:01:51;94166.69;;;12.04;83.68
68889;BME280;55930;47.412;8.790;2023-03-23T19:05:14;94170.56;;;12.03;82.26
68889;BME280;55930;47.412;8.790;2023-03-23T19:08:35;94170.31;;;12.01;84.20
68889;BME280;55930;47.412;8.790;2023-03-23T19:11:55;94162.25;;;11.89;86.16
68889;BME280;55930;47.412;8.790;2023-03-23T19:15:16;94162.03;;;11.87;86.65
68889;BME280;55930;47.412;8.790;2023-03-23T19:18:37;94159.94;;;11.66;91.05
68889;BME280;55930;47.412;8.790;2023-03-23T19:21:57;94147.66;;;11.74;90.19
68889;BME280;55930;47.412;8.790;2023-03-23T19:25:18;94143.41;;;11.45;94.17
68889;BME280;55930;47.412;8.790;2023-03-23T19:28:38;94142.94;;;11.46;92.91
68889;BME280;55930;47.412;8.790;2023-03-23T19:31:59;94142.03;;;11.55;91.45
68889;BME280;55930;47.412;8.790;2023-03-23T19:35:22;94133.25;;;11.43;91.31
68889;BME280;55930;47.412;8.790;2023-03-23T19:38:42;94134.88;;;11.35;91.27
68889;BME280;55930;47.412;8.790;2023-03-23T19:42:03;94128.59;;;11.33;92.25
68889;BME280;55930;47.412;8.790;2023-03-23T19:45:23;94122.78;;;11.29;90.13
68889;BME280;55930;47.412;8.790;2023-03-23T19:48:44;94117.72;;;11.31;90.01
68889;BME280;55930;47.412;8.790;2023-03-23T19:52:05;94120.81;;;11.24;90.21
68889;BME280;55930;47.412;8.790;2023-03-23T19:55:26;94110.81;;;11.07;91.19
68889;BME280;55930;47.412;8.790;2023-03-23T19:58:47;94111.38;;;11.17;88.65
68889;BME280;55930;47.412;8.790;2023-03-23T20:02:10;94119.09;;;11.21;89.23